createdAt,value
2022-09-10T00:01:29.691Z,100463.00
2022-09-10T00:03:56.543Z,100455.19
2022-09-10T00:06:27.727Z,100466.09
2022-09-10T00:08:58.818Z,100460.78
2022-09-10T00:11:31.628Z,100464.28
2022-09-10T00:14:00.003Z,100469.84
2022-09-10T00:16:27.732Z,100477.31
2022-09-10T00:18:55.051Z,100475.97
2022-09-10T00:21:21.601Z,100483.13
2022-09-10T00:23:48.672Z,100470.88
2022-09-10T00:26:22.574Z,100473.03
2022-09-10T00:28:51.908Z,100478.03
2022-09-10T00:31:20.437Z,100477.09
2022-09-10T00:33:47.141Z,100475.91
2022-09-10T00:36:16.062Z,100481.22
2022-09-10T00:38:42.614Z,100484.72
2022-09-10T00:41:09.790Z,100483.50
2022-09-10T00:43:52.568Z,100480.66
2022-09-10T00:46:25.302Z,100483.97
2022-09-10T00:48:55.698Z,100480.47
2022-09-10T00:51:23.808Z,100479.63
2022-09-10T00:53:50.915Z,100488.22
2022-09-10T00:56:17.679Z,100477.56
2022-09-10T00:58:46.462Z,100474.44
2022-09-10T01:01:13.533Z,100475.91
2022-09-10T01:03:42.611Z,100478.09
2022-09-10T01:06:09.155Z,100467.34
2022-09-10T01:08:35.603Z,100473.91
2022-09-10T01:11:26.887Z,100473.41
2022-09-10T01:14:12.466Z,100474.19
2022-09-10T01:17:00.728Z,100471.75
2022-09-10T01:20:01.550Z,100469.91
2022-09-10T01:22:52.742Z,100467.25
2022-09-10T01:25:46.414Z,100469.53
2022-09-10T01:28:25.898Z,100469.53
2022-09-10T01:31:01.917Z,100477.09
2022-09-10T01:33:37.937Z,100475.25
2022-09-10T01:36:19.280Z,100472.41
2022-09-10T01:38:46.576Z,100466.69
2022-09-10T01:41:13.658Z,100477.22
2022-09-10T01:43:41.918Z,100473.50
2022-09-10T01:46:25.652Z,100470.81
2022-09-10T01:49:01.201Z,100468.56
2022-09-10T01:51:47.296Z,100468.56
2022-09-10T01:54:33.559Z,100459.56
2022-09-10T01:57:24.611Z,100460.38
2022-09-10T02:00:09.892Z,100457.19
2022-09-10T02:02:57.834Z,100449.41
2022-09-10T02:05:27.126Z,100450.00
2022-09-10T02:07:58.539Z,100447.38
2022-09-10T02:10:25.162Z,100448.66
2022-09-10T02:12:51.730Z,100452.09
2022-09-10T02:15:19.648Z,100455.22
2022-09-10T02:17:47.072Z,100458.09
2022-09-10T02:20:14.695Z,100456.25
2022-09-10T02:22:58.577Z,100457.28
2022-09-10T02:25:31.783Z,100450.50
2022-09-10T02:27:58.568Z,100455.22
2022-09-10T02:30:25.192Z,100458.94
2022-09-10T02:32:51.634Z,100453.81
2022-09-10T02:35:18.262Z,100459.56
2022-09-10T02:37:44.679Z,100451.19
2022-09-10T02:40:12.009Z,100451.38
2022-09-10T02:42:38.471Z,100451.56
2022-09-10T02:45:05.505Z,100443.94
2022-09-10T02:47:32.048Z,100441.28
2022-09-10T02:49:58.497Z,100440.47
2022-09-10T02:52:25.793Z,100443.16
2022-09-10T02:54:52.257Z,100440.47
2022-09-10T02:57:18.714Z,100440.47
2022-09-10T02:59:45.174Z,100443.56
2022-09-10T03:02:11.684Z,100440.47
2022-09-10T03:04:38.602Z,100443.78
2022-09-10T03:07:05.104Z,100450.13
2022-09-10T03:09:31.557Z,100449.34
2022-09-10T03:11:58.065Z,100446.06
2022-09-10T03:14:25.787Z,100452.00
2022-09-10T03:16:52.600Z,100442.56
2022-09-10T03:19:19.592Z,100432.72
2022-09-10T03:21:47.502Z,100447.06
2022-09-10T03:24:15.550Z,100446.00
2022-09-10T03:26:43.382Z,100445.81
2022-09-10T03:29:09.930Z,100446.81
2022-09-10T03:31:36.880Z,100444.16
2022-09-10T03:34:04.386Z,100442.31
2022-09-10T03:36:31.410Z,100453.16
2022-09-10T03:39:00.922Z,100452.53
2022-09-10T03:41:28.420Z,100453.16
2022-09-10T03:43:55.557Z,100457.28
2022-09-10T03:46:22.751Z,100451.94
2022-09-10T03:48:54.600Z,100459.31
2022-09-10T03:51:21.775Z,100458.50
2022-09-10T03:53:48.309Z,100461.59
2022-09-10T03:56:15.482Z,100456.91
2022-09-10T03:58:41.898Z,100459.34
2022-09-10T04:01:08.596Z,100459.56
2022-09-10T04:03:35.101Z,100458.88
2022-09-10T04:06:01.581Z,100452.25
2022-09-10T04:08:28.027Z,100464.16
2022-09-10T04:10:55.114Z,100453.69
2022-09-10T04:13:23.046Z,100462.06
2022-09-10T04:15:49.581Z,100465.56
2022-09-10T04:18:16.012Z,100463.75
2022-09-10T04:20:46.910Z,100460.03
2022-09-10T04:23:13.811Z,100460.25
2022-09-10T04:25:40.281Z,100459.78
2022-09-10T04:28:06.875Z,100454.66
2022-09-10T04:30:33.440Z,100459.78
2022-09-10T04:33:00.748Z,100466.16
2022-09-10T04:35:27.171Z,100466.34
2022-09-10T04:37:53.642Z,100464.31
2022-09-10T04:40:20.110Z,100460.56
2022-09-10T04:42:46.541Z,100465.91
2022-09-10T04:45:12.992Z,100472.06
2022-09-10T04:47:39.551Z,100471.81
2022-09-10T04:50:06.831Z,100470.56
2022-09-10T04:52:34.364Z,100477.75
2022-09-10T04:55:00.794Z,100473.03
2022-09-10T04:57:27.960Z,100476.72
2022-09-10T04:59:54.384Z,100469.38
2022-09-10T05:02:21.270Z,100469.75
2022-09-10T05:04:47.741Z,100471.81
2022-09-10T05:07:14.181Z,100473.50
2022-09-10T05:09:40.644Z,100468.78
2022-09-10T05:12:07.259Z,100470.03
2022-09-10T05:14:33.904Z,100474.34
2022-09-10T05:17:00.368Z,100469.22
2022-09-10T05:19:26.889Z,100481.53
2022-09-10T05:21:53.332Z,100479.06
2022-09-10T05:24:19.790Z,100470.81
2022-09-10T05:26:46.375Z,100477.16
2022-09-10T05:29:13.997Z,100472.44
2022-09-10T05:31:41.019Z,100470.84
2022-09-10T05:34:08.402Z,100481.97
2022-09-10T05:36:35.498Z,100484.44
2022-09-10T05:39:03.819Z,100479.09
2022-09-10T05:41:31.143Z,100486.16
2022-09-10T05:43:58.179Z,100484.13
2022-09-10T05:46:24.761Z,100489.09
2022-09-10T05:48:54.061Z,100480.50
2022-09-10T05:51:20.682Z,100490.38
2022-09-10T05:53:47.157Z,100491.94
2022-09-10T05:56:13.626Z,100494.06
2022-09-10T05:58:40.192Z,100494.69
2022-09-10T06:01:06.779Z,100491.63
2022-09-10T06:03:33.359Z,100494.53
2022-09-10T06:05:59.784Z,100493.34
2022-09-10T06:08:26.227Z,100495.91
2022-09-10T06:10:57.069Z,100492.34
2022-09-10T06:13:24.554Z,100508.44
2022-09-10T06:15:50.986Z,100502.69
2022-09-10T06:18:17.726Z,100505.16
2022-09-10T06:20:44.233Z,100506.03
2022-09-10T06:23:12.018Z,100505.72
2022-09-10T06:25:38.685Z,100516.44
2022-09-10T06:28:05.133Z,100509.47
2022-09-10T06:30:32.115Z,100518.75
2022-09-10T06:32:58.575Z,100522.66
2022-09-10T06:35:27.103Z,100521.81
2022-09-10T06:37:54.598Z,100531.91
2022-09-10T06:40:21.124Z,100528.66
2022-09-10T06:42:48.488Z,100528.22
2022-09-10T06:45:15.000Z,100531.16
2022-09-10T06:50:28.394Z,100539.84
2022-09-10T06:52:54.809Z,100541.28
2022-09-10T06:55:21.426Z,100545.81
2022-09-10T06:57:47.880Z,100552.41
2022-09-10T07:00:15.041Z,100554.28
2022-09-10T07:02:41.454Z,100553.63
2022-09-10T07:05:08.176Z,100555.91
2022-09-10T07:07:34.661Z,100559.22
2022-09-10T07:10:01.461Z,100556.94
2022-09-10T07:12:28.014Z,100552.19
2022-09-10T07:14:54.717Z,100557.75
2022-09-10T07:17:21.261Z,100556.34
2022-09-10T07:19:48.128Z,100559.94
2022-09-10T07:22:14.537Z,100564.69
2022-09-10T07:24:41.059Z,100565.72
2022-09-10T07:27:07.497Z,100563.03
2022-09-10T07:29:35.242Z,100570.25
2022-09-10T07:32:04.305Z,100563.69
2022-09-10T07:34:30.743Z,100561.81
2022-09-10T07:36:57.205Z,100563.84
2022-09-10T07:39:25.770Z,100560.78
2022-09-10T07:41:53.358Z,100553.56
2022-09-10T07:44:20.113Z,100564.69
2022-09-10T07:46:47.213Z,100560.78
2022-09-10T07:49:13.672Z,100566.75
2022-09-10T07:51:40.087Z,100560.72
2022-09-10T07:54:06.654Z,100569.56
2022-09-10T07:56:34.723Z,100566.50
2022-09-10T07:59:02.677Z,100566.28
2022-09-10T08:01:29.190Z,100564.47
2022-09-10T08:03:57.460Z,100562.47
2022-09-10T08:06:24.525Z,100566.69
2022-09-10T08:08:50.954Z,100565.91
2022-09-10T08:11:18.742Z,100562.63
2022-09-10T08:13:49.473Z,100567.97
2022-09-10T08:16:21.343Z,100567.53
2022-09-10T08:18:48.684Z,100577.88
2022-09-10T08:21:16.941Z,100576.03
2022-09-10T08:23:51.711Z,100576.22
2022-09-10T08:26:18.642Z,100581.59
2022-09-10T08:28:45.197Z,100578.06
2022-09-10T08:31:12.800Z,100585.06
2022-09-10T08:33:40.155Z,100590.41
2022-09-10T08:36:10.352Z,100590.22
2022-09-10T08:38:39.959Z,100591.88
2022-09-10T08:41:13.790Z,100598.88
2022-09-10T08:43:55.442Z,100601.56
2022-09-10T08:46:29.348Z,100605.06
2022-09-10T08:49:16.604Z,100592.09
2022-09-10T08:52:00.615Z,100600.13
2022-09-10T08:54:37.532Z,100592.91
2022-09-10T08:57:06.702Z,100592.31
2022-09-10T08:59:40.630Z,100597.03
2022-09-10T09:02:31.682Z,100594.97
2022-09-10T09:05:14.190Z,100597.66
2022-09-10T09:07:40.874Z,100601.78
2022-09-10T09:10:25.725Z,100595.78
2022-09-10T09:13:10.515Z,100597.22
2022-09-10T09:15:54.495Z,100605.25
2022-09-10T09:18:27.998Z,100599.50
2022-09-10T09:21:06.976Z,100596.78
2022-09-10T09:24:11.822Z,100593.06
2022-09-10T09:26:38.050Z,100599.03
2022-09-10T09:29:15.517Z,100598.66
2022-09-10T09:31:47.288Z,100588.75
2022-09-10T09:34:28.099Z,100598.03
2022-09-10T09:36:58.889Z,100605.22
2022-09-10T09:39:54.094Z,100604.63
2022-09-10T09:42:29.367Z,100604.00
2022-09-10T09:45:24.767Z,100600.94
2022-09-10T09:47:54.420Z,100604.84
2022-09-10T09:50:21.006Z,100603.59
2022-09-10T09:52:47.984Z,100599.69
2022-09-10T09:55:30.970Z,100594.53
2022-09-10T09:58:19.128Z,100598.44
2022-09-10T10:00:45.638Z,100601.94
2022-09-10T10:03:20.443Z,100602.50
2022-09-10T10:05:48.653Z,100599.88
2022-09-10T10:08:34.114Z,100592.44
2022-09-10T10:11:01.515Z,100590.75
2022-09-10T10:13:43.199Z,100587.66
2022-09-10T10:16:22.955Z,100578.88
2022-09-10T10:18:50.782Z,100584.91
2022-09-10T10:21:22.309Z,100580.09
2022-09-10T10:23:49.516Z,100579.59
2022-09-10T10:26:22.073Z,100577.47
2022-09-10T10:28:51.736Z,100578.03
2022-09-10T10:31:19.711Z,100579.56
2022-09-10T10:33:59.507Z,100591.06
2022-09-10T10:36:33.008Z,100576.19
2022-09-10T10:39:44.457Z,100574.44
2022-09-10T10:42:22.643Z,100592.19
2022-09-10T10:45:01.382Z,100593.28
2022-09-10T10:47:43.505Z,100587.50
2022-09-10T10:50:28.413Z,100592.38
2022-09-10T10:53:13.291Z,100593.47
2022-09-10T10:55:50.398Z,100601.38
2022-09-10T10:58:20.255Z,100588.06
2022-09-10T11:00:57.642Z,100585.03
2022-09-10T11:03:56.162Z,100596.03
2022-09-10T11:06:27.331Z,100587.59
2022-09-10T11:08:59.250Z,100588.38
2022-09-10T11:11:58.021Z,100581.94
2022-09-10T11:14:45.726Z,100588.03
2022-09-10T11:17:27.143Z,100588.38
2022-09-10T11:20:29.891Z,100579.41
2022-09-10T11:23:34.057Z,100579.81
2022-09-10T11:26:12.214Z,100578.94
2022-09-10T11:28:47.295Z,100576.16
2022-09-10T11:31:32.312Z,100580.94
2022-09-10T11:34:15.889Z,100569.38
2022-09-10T11:36:48.773Z,100577.84
2022-09-10T11:39:24.458Z,100578.31
2022-09-10T11:41:54.810Z,100577.84
2022-09-10T11:44:36.222Z,100579.84
2022-09-10T11:47:30.235Z,100588.75
2022-09-10T11:50:10.317Z,100575.97
2022-09-10T11:52:37.134Z,100573.13
2022-09-10T11:55:04.352Z,100581.94
2022-09-10T11:58:12.141Z,100583.09
2022-09-10T12:01:16.708Z,100584.19
2022-09-10T12:04:06.129Z,100585.28
2022-09-10T12:06:55.393Z,100582.34
2022-09-10T12:09:35.721Z,100580.25
2022-09-10T12:12:33.536Z,100582.78
2022-09-10T12:15:00.202Z,100573.81
2022-09-10T12:17:34.370Z,100576.44
2022-09-10T12:20:04.522Z,100568.84
2022-09-10T12:22:37.489Z,100582.88
2022-09-10T12:25:04.022Z,100574.56
2022-09-10T12:27:51.192Z,100576.66
2022-09-10T12:30:45.068Z,100572.81
2022-09-10T12:33:11.514Z,100565.22
2022-09-10T12:35:46.125Z,100576.31
2022-09-10T12:38:48.140Z,100565.00
2022-09-10T12:41:36.136Z,100572.13
2022-09-10T12:44:24.937Z,100575.53
2022-09-10T12:47:15.974Z,100568.63
2022-09-10T12:49:50.423Z,100567.72
2022-09-10T12:52:34.924Z,100564.50
2022-09-10T12:55:21.301Z,100577.13
2022-09-10T12:58:23.839Z,100582.84
2022-09-10T13:01:12.024Z,100583.38
2022-09-10T13:03:50.028Z,100592.16
2022-09-10T13:06:16.986Z,100589.94
2022-09-10T13:08:47.582Z,100582.81
2022-09-10T13:11:24.704Z,100593.28
2022-09-10T13:14:02.374Z,100595.78
2022-09-10T13:16:28.896Z,100598.25
2022-09-10T13:19:13.610Z,100600.34
2022-09-10T13:21:43.145Z,100597.22
2022-09-10T13:24:35.630Z,100586.91
2022-09-10T13:27:17.160Z,100586.28
2022-09-10T13:29:47.497Z,100585.47
2022-09-10T13:32:48.190Z,100590.00
2022-09-10T13:35:14.578Z,100583.22
2022-09-10T13:38:35.740Z,100580.75
2022-09-10T13:41:25.755Z,100582.19
2022-09-10T13:44:10.978Z,100580.97
2022-09-10T13:46:47.792Z,100580.53
2022-09-10T13:49:20.027Z,100583.44
2022-09-10T13:51:54.506Z,100583.81
2022-09-10T13:54:33.229Z,100573.72
2022-09-10T13:57:23.607Z,100581.06
2022-09-10T13:59:55.181Z,100581.53
2022-09-10T14:02:21.775Z,100581.88
2022-09-10T14:04:48.486Z,100576.56
2022-09-10T14:07:28.550Z,100574.22
2022-09-10T14:10:06.708Z,100585.41
2022-09-10T14:12:35.688Z,100582.00
2022-09-10T14:15:05.500Z,100581.06
2022-09-10T14:17:38.873Z,100593.16
2022-09-10T14:20:27.302Z,100593.59
2022-09-10T14:22:59.771Z,100599.03
2022-09-10T14:25:38.368Z,100593.06
2022-09-10T14:28:16.775Z,100598.66
2022-09-10T14:30:45.454Z,100590.72
2022-09-10T14:33:36.705Z,100586.94
2022-09-10T14:36:14.182Z,100596.00
2022-09-10T14:38:42.368Z,100596.41
2022-09-10T14:41:27.430Z,100587.72
2022-09-10T14:44:15.173Z,100590.38
2022-09-10T14:47:01.207Z,100584.63
2022-09-10T14:49:34.144Z,100580.56
2022-09-10T14:52:01.769Z,100587.53
2022-09-10T14:54:29.904Z,100587.16
2022-09-10T14:56:58.632Z,100585.44
2022-09-10T14:59:32.142Z,100587.56
2022-09-10T15:02:03.204Z,100589.66
2022-09-10T15:04:30.162Z,100584.72
2022-09-10T15:07:00.708Z,100586.78
2022-09-10T15:09:28.794Z,100583.94
2022-09-10T15:12:05.753Z,100583.94
2022-09-10T15:14:33.633Z,100576.31
2022-09-10T15:17:00.184Z,100579.41
2022-09-10T15:19:26.877Z,100582.09
2022-09-10T15:21:53.463Z,100581.50
2022-09-10T15:24:22.462Z,100579.41
2022-09-10T15:26:49.718Z,100573.91
2022-09-10T15:29:17.768Z,100580.69
2022-09-10T15:31:44.663Z,100572.31
2022-09-10T15:34:11.971Z,100570.63
2022-09-10T15:36:40.027Z,100581.84
2022-09-10T15:39:07.921Z,100576.16
2022-09-10T15:41:34.537Z,100577.84
2022-09-10T15:44:03.158Z,100580.41
2022-09-10T15:46:29.802Z,100576.19
2022-09-10T15:48:58.709Z,100578.81
2022-09-10T15:51:25.630Z,100589.34
2022-09-10T15:53:53.376Z,100591.25
2022-09-10T15:56:21.411Z,100587.72
2022-09-10T15:58:50.430Z,100587.78
2022-09-10T16:01:17.431Z,100592.75
2022-09-10T16:03:47.117Z,100590.66
2022-09-10T16:06:15.597Z,100600.81
2022-09-10T16:08:42.168Z,100604.75
2022-09-10T16:11:14.138Z,100612.56
2022-09-10T16:13:40.726Z,100607.03
2022-09-10T16:16:10.559Z,100614.53
2022-09-10T16:18:37.183Z,100617.81
2022-09-10T16:21:24.171Z,100617.22
2022-09-10T16:23:51.918Z,100620.09
2022-09-10T16:26:27.666Z,100618.28
2022-09-10T16:28:59.068Z,100624.72
2022-09-10T16:31:31.299Z,100627.44
2022-09-10T16:34:00.393Z,100621.44
2022-09-10T16:36:27.345Z,100621.28
2022-09-10T16:38:55.883Z,100620.66
2022-09-10T16:41:26.180Z,100623.34
2022-09-10T16:43:53.548Z,100621.50
2022-09-10T16:46:20.373Z,100620.06
2022-09-10T16:48:47.105Z,100618.41
2022-09-10T16:51:19.670Z,100616.97
2022-09-10T16:53:52.548Z,100627.69
2022-09-10T16:56:19.068Z,100623.34
2022-09-10T16:58:47.647Z,100629.16
2022-09-10T17:01:15.180Z,100634.94
2022-09-10T17:03:43.684Z,100635.34
2022-09-10T17:06:21.704Z,100640.31
2022-09-10T17:08:48.477Z,100645.84
2022-09-10T17:11:17.579Z,100640.31
2022-09-10T17:13:44.353Z,100647.72
2022-09-10T17:16:30.543Z,100660.50
2022-09-10T17:19:03.183Z,100656.19
2022-09-10T17:21:31.757Z,100661.56
2022-09-10T17:23:59.302Z,100658.88
2022-09-10T17:26:27.049Z,100660.72
2022-09-10T17:28:59.542Z,100669.97
2022-09-10T17:31:27.705Z,100666.06
2022-09-10T17:33:55.689Z,100666.28
2022-09-10T17:36:25.264Z,100665.03
2022-09-10T17:38:56.303Z,100666.88
2022-09-10T17:41:24.004Z,100670.59
2022-09-10T17:43:51.075Z,100677.00
2022-09-10T17:46:20.328Z,100679.03
2022-09-10T17:48:48.212Z,100682.75
2022-09-10T17:51:19.901Z,100689.97
2022-09-10T17:53:46.577Z,100692.22
2022-09-10T17:56:15.459Z,100695.31
2022-09-10T17:58:42.812Z,100686.44
2022-09-10T18:01:13.920Z,100695.53
2022-09-10T18:04:01.162Z,100701.91
2022-09-10T18:06:29.207Z,100712.84
2022-09-10T18:09:00.630Z,100710.34
2022-09-10T18:11:30.145Z,100721.06
2022-09-10T18:13:57.951Z,100720.25
2022-09-10T18:16:27.129Z,100730.16
2022-09-10T18:19:00.128Z,100732.19
2022-09-10T18:21:35.486Z,100733.41
2022-09-10T18:24:03.521Z,100736.75
2022-09-10T18:26:35.979Z,100738.59
2022-09-10T18:29:06.245Z,100737.34
2022-09-10T18:31:35.645Z,100742.69
2022-09-10T18:34:03.848Z,100742.28
2022-09-10T18:36:31.627Z,100748.44
2022-09-10T18:39:03.338Z,100756.69
2022-09-10T18:41:33.142Z,100760.22
2022-09-10T18:44:04.128Z,100766.78
2022-09-10T18:46:32.782Z,100772.75
2022-09-10T18:49:00.826Z,100769.44
2022-09-10T18:51:30.322Z,100767.38
2022-09-10T18:54:01.575Z,100772.31
2022-09-10T18:56:30.985Z,100789.38
2022-09-10T18:59:00.936Z,100789.38
2022-09-10T19:01:29.931Z,100790.59
2022-09-10T19:03:57.825Z,100787.31
2022-09-10T19:06:32.324Z,100793.06
2022-09-10T19:09:05.692Z,100793.06
2022-09-10T19:11:38.378Z,100803.78
2022-09-10T19:14:18.334Z,100812.59
2022-09-10T19:16:46.965Z,100812.59
2022-09-10T19:19:19.996Z,100814.47
2022-09-10T19:21:49.188Z,100824.34
2022-09-10T19:24:17.874Z,100827.47
2022-09-10T19:26:45.014Z,100832.97
2022-09-10T19:29:17.123Z,100826.81
2022-09-10T19:31:46.577Z,100836.28
2022-09-10T19:34:15.226Z,100843.66
2022-09-10T19:36:43.818Z,100852.28
2022-09-10T19:39:13.552Z,100852.69
2022-09-10T19:41:42.099Z,100859.09
2022-09-10T19:44:10.386Z,100862.56
2022-09-10T19:46:38.801Z,100867.50
2022-09-10T19:49:07.005Z,100865.41
2022-09-10T19:51:36.111Z,100874.25
2022-09-10T19:54:03.851Z,100876.31
2022-09-10T19:56:34.173Z,100878.78
2022-09-10T19:59:03.045Z,100882.28
2022-09-10T20:01:33.227Z,100877.75
2022-09-10T20:04:01.949Z,100876.75
2022-09-10T20:06:30.094Z,100883.34
2022-09-10T20:08:58.252Z,100886.03
2022-09-10T20:11:27.977Z,100889.75
2022-09-10T20:13:57.622Z,100892.81
2022-09-10T20:16:29.333Z,100892.16
2022-09-10T20:18:56.396Z,100891.97
2022-09-10T20:21:31.498Z,100894.03
2022-09-10T20:23:59.025Z,100895.25
2022-09-10T20:26:34.197Z,100896.25
2022-09-10T20:29:04.276Z,100892.09
2022-09-10T20:31:33.773Z,100900.97
2022-09-10T20:34:06.062Z,100901.53
2022-09-10T20:36:35.102Z,100900.31
2022-09-10T20:39:25.619Z,100909.75
2022-09-10T20:41:52.908Z,100907.00
2022-09-10T20:44:20.927Z,100907.66
2022-09-10T20:46:47.919Z,100915.50
2022-09-10T20:49:16.405Z,100920.84
2022-09-10T20:51:44.959Z,100915.88
2022-09-10T20:54:15.075Z,100920.22
2022-09-10T20:56:42.218Z,100928.25
2022-09-10T20:59:10.996Z,100916.72
2022-09-10T21:01:38.758Z,100915.00
2022-09-10T21:04:05.382Z,100927.56
2022-09-10T21:06:33.646Z,100932.69
2022-09-10T21:09:02.084Z,100932.91
2022-09-10T21:11:31.101Z,100932.81
2022-09-10T21:14:00.295Z,100938.19
2022-09-10T21:16:32.196Z,100935.50
2022-09-10T21:19:04.836Z,100938.00
2022-09-10T21:21:34.102Z,100938.63
2022-09-10T21:24:04.171Z,100939.63
2022-09-10T21:26:36.027Z,100943.53
2022-09-10T21:29:05.102Z,100944.81
2022-09-10T21:31:32.151Z,100943.34
2022-09-10T21:34:02.941Z,100946.22
2022-09-10T21:36:31.701Z,100950.34
2022-09-10T21:39:00.435Z,100956.72
2022-09-10T21:41:31.712Z,100956.91
2022-09-10T21:44:03.644Z,100958.94
2022-09-10T21:46:31.248Z,100957.94
2022-09-10T21:48:58.527Z,100973.16
2022-09-10T21:51:25.236Z,100966.75
2022-09-10T21:53:54.981Z,100963.84
2022-09-10T21:56:22.435Z,100964.69
2022-09-10T21:58:48.952Z,100964.69
2022-09-10T22:01:19.398Z,100971.69
2022-09-10T22:03:50.187Z,100966.91
2022-09-10T22:06:18.633Z,100970.78
2022-09-10T22:08:48.127Z,100973.28
2022-09-10T22:11:21.714Z,100973.53
2022-09-10T22:13:55.624Z,100973.75
2022-09-10T22:16:25.180Z,100969.78
2022-09-10T22:18:52.476Z,100976.78
2022-09-10T22:21:19.211Z,100975.75
2022-09-10T22:23:46.361Z,100969.31
2022-09-10T22:26:18.599Z,100966.84
2022-09-10T22:28:45.578Z,100973.03
2022-09-10T22:31:19.030Z,100976.09
2022-09-10T22:33:50.423Z,100983.28
2022-09-10T22:36:44.581Z,100985.50
2022-09-10T22:39:12.854Z,100985.69
2022-09-10T22:41:39.791Z,100986.06
2022-09-10T22:44:07.201Z,100990.41
2022-09-10T22:46:35.412Z,100994.16
2022-09-10T22:49:01.945Z,100994.34
2022-09-10T22:51:31.539Z,101003.56
2022-09-10T22:53:58.229Z,100992.88
2022-09-10T22:56:26.799Z,100994.34
2022-09-10T22:58:55.544Z,100996.75
2022-09-10T23:01:27.721Z,101003.94
2022-09-10T23:03:59.126Z,101006.03
2022-09-10T23:06:27.808Z,101008.94
2022-09-10T23:08:56.744Z,101007.91
2022-09-10T23:11:26.236Z,101004.88
2022-09-10T23:13:57.417Z,101008.09
2022-09-10T23:16:30.163Z,101014.47
2022-09-10T23:18:58.369Z,101016.84
2022-09-10T23:21:27.131Z,101024.25
2022-09-10T23:23:56.136Z,101023.41
2022-09-10T23:26:23.725Z,101025.00
2022-09-10T23:28:50.603Z,101027.03
2022-09-10T23:31:20.993Z,101032.94
2022-09-10T23:33:59.215Z,101032.13
2022-09-10T23:36:31.396Z,101040.97
2022-09-10T23:38:59.019Z,101040.88
2022-09-10T23:41:26.098Z,101041.25
2022-09-10T23:43:52.928Z,101046.78
2022-09-10T23:46:19.883Z,101042.44
2022-09-10T23:48:46.628Z,101044.13
2022-09-10T23:51:15.574Z,101036.66
2022-09-10T23:53:44.960Z,101037.03
2022-09-10T23:56:13.335Z,101046.25
2022-09-10T23:58:40.344Z,101047.63
